Airport View

Enter AWOS ICAO identifier for current METAR.

ex. KFNL

PANT 202253Z AUTO 14015G21KT 10SM OVC011 14/13 A2989 RMK PK WND 12026/2226 SLP121 T01390128 TSNO VIA AUTODIAL

21 Sep 2019 00:24

Frequency: 135.75

Phone: 907-886-3246

Other Area AWOS: PAMM - PAKT - CWEK - PAHY

TAF PAKT 202322Z 2100/2124 14020G30KT 1SM RA BR OVC006 TEMPO 2100/2104 3SM -RA SCT006 OVC012 FM211500 15012G20KT 6SM -SHRA SCT008 BKN035 OVC050 AMD LTD TO CLD VIS AND WIND 2106/2115